Station: EBLB - 02/10/2022 18:55Z (il y a 22 minutes)
EBLB 021855Z AUTO 31006KT 9999 BKN009/// 10/09 Q1023 GRN
Vent du 310º - 6 kt
Visibilité > 10 km
Ciel 75% couvert à 900 pieds
Température: +10ºC - Point de rosée: +09ºC - QNH: 1023 hPa
Code couleur militaire: GRN (conditions IMC ou marginales)